Time;durP1;ratioP1;P1;durP2;ratioP2;P2;SDS_P1;SDS_P2;PMS_P1;PMS_P2;Temp;Humidity;BMP_temperature;BMP_pressure;BME280_temperature;BME280_humidity;BME280_pressure;Samples;Min_cycle;Max_cycle;Signal;HPM_P1;HPM_P2
2022/08/01 00:00:28;;;;;;;;;5.75;5.25;;;;;27.90;35.58;99192.53;5050151;28;45365;-58
2022/08/01 00:02:53;;;;;;;;;5.50;4.25;;;;;27.83;35.02;99188.78;5050920;28;46297;-58
2022/08/01 00:05:19;;;;;;;;;6.00;6.00;;;;;27.81;35.43;99190.00;5052939;28;45392;-59
2022/08/01 00:07:44;;;;;;;;;4.50;4.50;;;;;27.78;35.43;99197.44;5053456;28;45531;-58
2022/08/01 00:10:14;;;;;;;;;3.50;3.50;;;;;27.75;35.52;99192.34;5055347;28;45464;-58
2022/08/01 00:12:40;;;;;;;;;6.00;6.00;;;;;27.72;35.82;99187.28;5052261;28;45456;-58
2022/08/01 00:15:09;;;;;;;;;6.00;6.00;;;;;27.63;36.35;99185.59;5055315;28;45366;-58
2022/08/01 00:17:34;;;;;;;;;7.25;7.25;;;;;27.52;36.63;99182.31;5052425;28;45386;-58
2022/08/01 00:20:00;;;;;;;;;5.75;5.75;;;;;27.43;36.61;99186.88;5054162;28;45542;-58
2022/08/01 00:22:25;;;;;;;;;5.25;5.25;;;;;27.37;36.98;99182.13;5053455;28;46236;-58
2022/08/01 00:24:51;;;;;;;;;6.00;6.00;;;;;27.31;36.73;99191.78;5049119;28;45456;-58
2022/08/01 00:27:16;;;;;;;;;5.75;5.75;;;;;27.27;36.88;99195.81;5052918;28;45384;-58
2022/08/01 00:29:41;;;;;;;;;6.00;6.00;;;;;27.23;37.42;99185.50;5050843;28;45604;-58
2022/08/01 00:32:07;;;;;;;;;6.50;6.50;;;;;27.17;37.50;99191.56;5053532;28;46020;-59
2022/08/01 00:34:33;;;;;;;;;6.75;6.75;;;;;27.09;37.55;99185.13;5048008;28;45453;-58
2022/08/01 00:36:58;;;;;;;;;8.00;7.50;;;;;27.03;37.18;99193.88;5055275;28;45397;-58
2022/08/01 00:39:23;;;;;;;;;7.50;6.75;;;;;26.95;37.76;99188.47;5046764;28;45440;-58
2022/08/01 00:41:49;;;;;;;;;7.00;6.25;;;;;26.93;37.76;99195.88;5052269;28;45523;-58
2022/08/01 00:44:14;;;;;;;;;7.00;7.00;;;;;26.89;37.89;99188.22;5041702;28;45445;-58
2022/08/01 00:46:40;;;;;;;;;5.50;5.50;;;;;26.84;37.80;99193.28;5055655;28;45554;-58
2022/08/01 00:49:05;;;;;;;;;5.00;4.25;;;;;26.81;37.76;99193.63;5048852;28;45579;-58
2022/08/01 00:51:31;;;;;;;;;9.00;9.00;;;;;26.75;37.81;99195.13;5048787;28;46207;-58
2022/08/01 00:53:56;;;;;;;;;7.25;6.75;;;;;26.69;37.91;99196.59;5049577;28;45417;-59
2022/08/01 00:56:25;;;;;;;;;7.00;6.50;;;;;26.69;37.79;99195.75;5050998;28;45262;-58
2022/08/01 00:58:51;;;;;;;;;6.25;6.25;;;;;26.66;38.24;99199.63;5048000;28;45482;-58
2022/08/01 01:01:20;;;;;;;;;7.25;7.00;;;;;26.63;38.35;99202.69;5050078;28;46556;-58
2022/08/01 01:03:46;;;;;;;;;8.00;7.50;;;;;26.61;38.54;99202.00;5048694;28;45381;-58
2022/08/01 01:06:22;;;;;;;;;7.00;7.00;;;;;26.56;38.81;99198.91;5048013;28;45372;-58
2022/08/01 01:09:06;;;;;;;;;8.25;6.50;;;;;26.54;38.60;99205.47;5048111;28;45361;-58
2022/08/01 01:11:43;;;;;;;;;7.00;7.00;;;;;26.47;38.49;99204.44;5053991;28;46279;-58
2022/08/01 01:14:22;;;;;;;;;7.75;7.75;;;;;26.40;38.77;99204.22;5052947;28;45514;-58
2022/08/01 01:16:48;;;;;;;;;8.75;8.00;;;;;26.34;39.09;99204.84;5055180;28;45487;-58
2022/08/01 01:19:23;;;;;;;;;6.50;6.50;;;;;26.31;39.09;99197.09;5047481;28;45483;-58
2022/08/01 01:22:37;;;;;;;;;9.00;7.50;;;;;26.27;38.95;99199.22;5055158;28;45408;-58
2022/08/01 01:25:16;;;;;;;;;6.00;6.00;;;;;26.24;38.86;99204.09;5044528;28;45543;-59
2022/08/01 01:28:04;;;;;;;;;7.00;7.00;;;;;26.20;39.06;99210.81;5052214;28;45450;-59
2022/08/01 01:30:32;;;;;;;;;8.25;7.25;;;;;26.12;39.00;99203.50;5045503;28;45397;-59
2022/08/01 01:33:02;;;;;;;;;9.00;7.00;;;;;26.09;39.24;99203.81;5051577;28;45696;-59
2022/08/01 01:35:32;;;;;;;;;6.00;6.00;;;;;26.04;39.50;99212.41;5046568;28;45397;-58
2022/08/01 01:38:07;;;;;;;;;7.25;6.00;;;;;25.98;39.25;99207.63;5050878;28;45482;-58
2022/08/01 01:40:34;;;;;;;;;6.50;5.75;;;;;25.95;39.07;99210.66;5048737;28;45583;-58
2022/08/01 01:42:59;;;;;;;;;7.00;7.00;;;;;25.94;39.46;99213.50;5048418;28;45530;-58
2022/08/01 01:45:26;;;;;;;;;2.50;2.00;;;;;25.93;39.56;99212.66;5049072;28;45397;-58
2022/08/01 01:47:53;;;;;;;;;7.00;7.00;;;;;25.91;39.56;99213.81;5046316;28;45397;-59
2022/08/01 01:50:21;;;;;;;;;7.75;6.75;;;;;25.87;39.58;99213.28;5045276;28;45298;-59
2022/08/01 01:52:48;;;;;;;;;7.25;7.25;;;;;25.86;39.68;99208.03;5042072;28;45516;-58
2022/08/01 01:55:15;;;;;;;;;7.75;7.75;;;;;25.85;39.74;99206.31;5053390;28;45441;-58
2022/08/01 01:57:44;;;;;;;;;7.50;6.50;;;;;25.84;39.68;99212.72;5050956;28;45155;-59
2022/08/01 02:00:11;;;;;;;;;7.00;6.00;;;;;25.81;39.73;99211.19;5051850;28;45451;-59
2022/08/01 02:02:38;;;;;;;;;8.75;7.75;;;;;25.77;39.96;99214.38;5050397;28;46418;-59
2022/08/01 02:05:05;;;;;;;;;7.00;7.00;;;;;25.76;39.99;99218.09;5050609;28;45361;-58
2022/08/01 02:07:32;;;;;;;;;7.00;7.00;;;;;25.73;40.08;99219.22;5051783;28;45488;-59
2022/08/01 02:10:00;;;;;;;;;9.00;8.00;;;;;25.70;40.29;99211.44;5049690;28;45548;-58
2022/08/01 02:12:26;;;;;;;;;8.00;8.00;;;;;25.69;40.11;99216.00;5052208;28;45728;-58
2022/08/01 02:14:54;;;;;;;;;9.75;9.75;;;;;25.68;40.06;99218.84;5051720;28;45527;-58
2022/08/01 02:17:23;;;;;;;;;7.00;7.00;;;;;25.66;40.17;99218.13;5054468;28;45587;-58
2022/08/01 02:19:49;;;;;;;;;10.00;9.00;;;;;25.64;40.48;99214.75;5053562;28;45516;-58
2022/08/01 02:22:30;;;;;;;;;8.00;8.00;;;;;25.64;40.41;99217.44;5056146;28;45559;-58
2022/08/01 02:25:18;;;;;;;;;8.00;8.00;;;;;25.62;40.91;99220.34;5052676;28;45426;-59
2022/08/01 02:28:07;;;;;;;;;8.00;8.00;;;;;25.59;41.04;99217.91;5052912;28;45424;-59
2022/08/01 02:30:35;;;;;;;;;8.00;8.00;;;;;25.55;41.21;99227.31;5048228;28;45357;-58
2022/08/01 02:33:16;;;;;;;;;8.00;8.00;;;;;25.48;41.23;99228.91;5050561;28;46595;-58
2022/08/01 02:35:45;;;;;;;;;9.00;9.00;;;;;25.43;41.37;99225.84;5051255;28;45381;-58
2022/08/01 02:38:13;;;;;;;;;6.75;5.50;;;;;25.38;41.59;99231.69;5050442;28;45495;-58
2022/08/01 02:40:44;;;;;;;;;9.00;8.75;;;;;25.35;41.47;99228.44;5056188;28;45321;-58
2022/08/01 02:43:14;;;;;;;;;7.25;7.25;;;;;25.31;41.66;99229.75;5050206;28;45515;-58
2022/08/01 02:45:45;;;;;;;;;6.75;6.75;;;;;25.27;41.96;99233.75;5054315;28;45412;-58
2022/08/01 02:48:14;;;;;;;;;8.00;8.00;;;;;25.19;41.94;99226.41;5051181;28;45515;-58
2022/08/01 02:50:43;;;;;;;;;8.00;7.00;;;;;25.15;42.34;99232.25;5048889;28;45375;-58
2022/08/01 02:53:11;;;;;;;;;6.75;6.75;;;;;25.12;42.30;99235.28;5047521;28;45478;-58
2022/08/01 02:55:39;;;;;;;;;5.25;5.00;;;;;25.07;42.54;99233.03;5051482;28;45485;-59
2022/08/01 02:58:07;;;;;;;;;6.75;6.75;;;;;25.03;42.36;99226.22;5050300;28;45501;-59
2022/08/01 03:00:34;;;;;;;;;8.50;8.50;;;;;24.98;42.11;99226.66;5050962;28;45412;-58
2022/08/01 03:03:01;;;;;;;;;8.25;8.25;;;;;24.97;42.10;99233.06;5050535;28;45615;-58
2022/08/01 03:05:27;;;;;;;;;8.20;8.20;;;;;24.95;42.38;99237.78;5048908;28;45353;-58
2022/08/01 03:07:55;;;;;;;;;7.50;7.50;;;;;24.95;41.93;99229.69;5053441;28;45506;-58
2022/08/01 03:10:21;;;;;;;;;8.00;7.50;;;;;24.93;42.31;99237.06;5053125;28;45527;-58
2022/08/01 03:12:49;;;;;;;;;8.50;7.50;;;;;24.91;42.50;99235.50;5052291;28;46249;-58
2022/08/01 03:15:16;;;;;;;;;9.00;9.00;;;;;24.89;42.69;99237.50;5055519;28;45321;-58
2022/08/01 03:17:45;;;;;;;;;7.00;7.00;;;;;24.88;42.73;99236.63;5054979;28;45487;-59
2022/08/01 03:20:14;;;;;;;;;9.00;9.00;;;;;24.89;42.75;99229.41;5050661;28;45527;-58
2022/08/01 03:22:42;;;;;;;;;9.25;9.25;;;;;24.88;42.67;99231.25;5053162;28;46438;-58
2022/08/01 03:25:08;;;;;;;;;8.00;8.00;;;;;24.87;42.54;99232.25;5053787;28;45363;-58
2022/08/01 03:27:36;;;;;;;;;9.50;9.50;;;;;24.88;42.67;99225.00;5053124;28;45460;-58
2022/08/01 03:30:05;;;;;;;;;9.50;9.50;;;;;24.88;42.79;99230.41;5048774;28;45460;-58
2022/08/01 03:32:31;;;;;;;;;11.00;10.00;;;;;24.85;42.90;99228.00;5050846;28;45945;-58
2022/08/01 03:34:57;;;;;;;;;10.00;9.75;;;;;24.85;42.65;99225.28;5048554;28;45421;-58
2022/08/01 03:37:29;;;;;;;;;9.00;9.00;;;;;24.81;43.01;99235.53;5048645;28;45266;-58
2022/08/01 03:40:07;;;;;;;;;9.75;9.75;;;;;24.78;43.27;99230.44;5046095;28;45289;-58
2022/08/01 03:42:37;;;;;;;;;11.25;10.25;;;;;24.74;43.44;99230.88;5053988;28;46247;-58
2022/08/01 03:45:09;;;;;;;;;10.00;10.00;;;;;24.69;43.65;99234.03;5048810;28;45471;-58
2022/08/01 03:47:35;;;;;;;;;10.50;9.25;;;;;24.64;43.88;99237.16;5054031;28;45460;-58
2022/08/01 03:50:04;;;;;;;;;10.00;9.50;;;;;24.62;44.50;99236.47;5051437;28;45480;-58
2022/08/01 03:52:31;;;;;;;;;8.25;7.50;;;;;24.61;44.20;99239.31;5046738;28;46680;-58
2022/08/01 03:55:02;;;;;;;;;9.00;8.50;;;;;24.60;43.98;99234.94;5054921;28;45353;-58
2022/08/01 03:57:28;;;;;;;;;8.00;6.75;;;;;24.60;44.15;99243.00;5054593;28;45320;-58
2022/08/01 03:59:56;;;;;;;;;9.00;8.25;;;;;24.60;44.00;99249.25;5047441;28;45361;-58
2022/08/01 04:02:22;;;;;;;;;5.00;5.00;;;;;24.58;44.79;99247.69;5054275;28;45563;-58
2022/08/01 04:04:48;;;;;;;;;10.50;9.75;;;;;24.51;44.29;99244.72;5046855;28;45366;-58
2022/08/01 04:07:29;;;;;;;;;8.50;8.50;;;;;24.41;44.18;99254.69;5054604;28;45372;-58
2022/08/01 04:09:54;;;;;;;;;8.75;8.75;;;;;24.34;44.76;99250.88;5045689;28;45345;-58
2022/08/01 04:12:21;;;;;;;;;12.75;9.00;;;;;24.28;44.63;99254.16;5052978;28;45444;-58
2022/08/01 04:14:47;;;;;;;;;7.00;7.00;;;;;24.27;44.23;99252.47;5052830;28;45393;-58
2022/08/01 04:17:13;;;;;;;;;10.00;10.00;;;;;24.26;44.38;99259.69;5055599;28;45571;-58
2022/08/01 04:19:39;;;;;;;;;13.50;11.75;;;;;24.23;44.31;99256.41;5050876;28;45599;-58
2022/08/01 04:22:05;;;;;;;;;13.75;11.00;;;;;24.22;44.45;99266.34;5054802;28;45577;-58
2022/08/01 04:24:33;;;;;;;;;11.25;11.25;;;;;24.19;44.60;99260.38;5048850;28;45436;-58
2022/08/01 04:27:01;;;;;;;;;11.25;11.25;;;;;24.16;44.85;99266.03;5054935;28;45485;-60
2022/08/01 04:29:29;;;;;;;;;11.50;11.50;;;;;24.16;44.61;99258.81;5048019;28;45521;-61
2022/08/01 04:31:56;;;;;;;;;10.00;9.25;;;;;24.17;44.92;99268.59;5054301;28;46576;-61
2022/08/01 04:34:25;;;;;;;;;10.25;9.50;;;;;24.17;44.96;99273.13;5053570;28;45511;-61
2022/08/01 04:36:54;;;;;;;;;10.00;10.00;;;;;24.15;45.52;99273.28;5055365;28;45387;-61
2022/08/01 04:39:23;;;;;;;;;10.25;10.25;;;;;24.12;45.20;99270.91;5052583;28;45415;-61
2022/08/01 04:41:51;;;;;;;;;11.50;9.25;;;;;24.10;44.74;99272.88;5055334;28;45552;-60
2022/08/01 04:44:16;;;;;;;;;9.00;9.00;;;;;24.10;44.82;99277.41;5045985;28;45506;-61
2022/08/01 04:46:43;;;;;;;;;8.25;8.25;;;;;24.10;45.31;99272.03;5051129;28;45632;-61
2022/08/01 04:49:11;;;;;;;;;9.25;9.00;;;;;24.09;45.19;99273.88;5046032;28;45545;-61
2022/08/01 04:51:48;;;;;;;;;10.50;9.00;;;;;24.13;45.06;99283.34;5048968;28;45473;-61
2022/08/01 04:54:14;;;;;;;;;13.50;12.25;;;;;24.16;45.50;99282.22;5049667;28;45529;-61
2022/08/01 04:56:41;;;;;;;;;9.75;9.75;;;;;24.19;45.39;99288.16;5054894;28;45432;-61
2022/08/01 05:01:51;;;;;;;;;10.75;10.00;;;;;24.25;44.82;99290.34;5054832;28;45767;-61
2022/08/01 05:04:16;;;;;;;;;7.25;6.00;;;;;24.24;44.64;99290.47;5048993;28;45362;-61
2022/08/01 05:06:41;;;;;;;;;11.00;11.00;;;;;24.21;44.90;99291.56;5046587;28;45390;-62
2022/08/01 05:09:07;;;;;;;;;11.25;11.00;;;;;24.17;45.03;99287.47;5044953;28;45406;-62
2022/08/01 05:11:32;;;;;;;;;10.00;10.00;;;;;24.15;45.30;99277.81;5054693;28;46005;-62
2022/08/01 05:13:57;;;;;;;;;12.00;10.00;;;;;24.16;45.18;99283.06;5044867;28;45448;-63
2022/08/01 05:16:23;;;;;;;;;10.50;9.00;;;;;24.16;45.65;99283.06;5054537;28;45884;-62
2022/08/01 05:18:48;;;;;;;;;9.00;9.00;;;;;24.16;45.41;99284.91;5045227;28;45403;-62
2022/08/01 05:21:13;;;;;;;;;10.25;10.25;;;;;24.11;45.44;99279.97;5051929;28;45973;-62
2022/08/01 05:23:39;;;;;;;;;7.50;7.50;;;;;24.10;45.49;99285.50;5046799;28;45437;-57
2022/08/01 05:26:04;;;;;;;;;11.75;10.00;;;;;24.09;46.00;99278.41;5047596;28;45363;-58
2022/08/01 05:28:30;;;;;;;;;8.50;8.50;;;;;24.05;45.77;99277.84;5048327;28;45653;-58
2022/08/01 05:30:56;;;;;;;;;10.75;10.75;;;;;24.07;45.38;99280.38;5049623;28;46643;-63
2022/08/01 05:33:22;;;;;;;;;10.00;10.00;;;;;24.11;45.57;99281.81;5052352;28;45533;-56
2022/08/01 05:35:47;;;;;;;;;10.00;10.00;;;;;24.16;46.07;99280.38;5053605;28;45427;-57
2022/08/01 05:38:12;;;;;;;;;8.25;8.25;;;;;24.20;45.80;99276.41;5050995;28;45487;-57
2022/08/01 05:40:38;;;;;;;;;12.50;12.50;;;;;24.24;45.83;99279.69;5046702;28;46862;-57
2022/08/01 05:43:03;;;;;;;;;10.75;9.25;;;;;24.29;45.43;99285.50;5047653;28;45511;-56
2022/08/01 05:45:28;;;;;;;;;9.50;9.50;;;;;24.31;45.67;99283.50;5050014;28;45660;-56
2022/08/01 05:47:54;;;;;;;;;13.00;11.75;;;;;24.33;45.26;99281.50;5048117;28;45491;-56
2022/08/01 05:50:19;;;;;;;;;9.50;9.50;;;;;24.37;45.49;99290.16;5051523;28;45720;-57
2022/08/01 05:52:44;;;;;;;;;12.50;12.00;;;;;24.35;45.67;99285.75;5051593;28;45392;-56
2022/08/01 05:55:10;;;;;;;;;12.25;12.00;;;;;24.35;45.80;99285.75;5040437;28;45676;-56
2022/08/01 05:57:35;;;;;;;;;13.50;12.00;;;;;24.33;46.01;99294.97;5047024;28;45348;-56
2022/08/01 06:00:01;;;;;;;;;10.50;10.50;;;;;24.33;45.62;99294.97;5049870;28;46779;-53
2022/08/01 06:02:27;;;;;;;;;12.00;12.00;;;;;24.34;45.95;99285.91;5049568;28;46123;-56
2022/08/01 06:04:52;;;;;;;;;11.25;11.25;;;;;24.34;46.24;99294.84;5050736;28;45455;-56
2022/08/01 06:07:18;;;;;;;;;15.00;15.00;;;;;24.36;46.07;99292.00;5051800;28;45448;-53
2022/08/01 06:09:43;;;;;;;;;12.50;11.00;;;;;24.39;46.42;99296.25;5052927;28;45431;-55
2022/08/01 06:12:09;;;;;;;;;13.00;13.00;;;;;24.41;46.38;99289.75;5052585;28;45523;-52
2022/08/01 06:14:34;;;;;;;;;12.00;10.00;;;;;24.42;45.94;99291.44;5050501;28;45701;-54
2022/08/01 06:16:59;;;;;;;;;13.75;13.75;;;;;24.43;46.44;99292.28;5053391;28;45457;-56
2022/08/01 06:19:26;;;;;;;;;12.25;12.25;;;;;24.45;46.20;99296.53;5046714;28;46594;-52
2022/08/01 06:21:51;;;;;;;;;13.00;13.00;;;;;24.46;46.33;99290.16;5041739;28;45483;-53
2022/08/01 06:24:16;;;;;;;;;11.50;11.50;;;;;24.50;46.33;99299.63;5042401;28;45842;-52
2022/08/01 06:26:42;;;;;;;;;14.50;14.00;;;;;24.56;46.06;99304.44;5053236;27;45434;-54
2022/08/01 06:29:07;;;;;;;;;12.25;12.25;;;;;24.63;45.48;99289.38;5044221;28;46935;-53
2022/08/01 06:31:33;;;;;;;;;16.25;13.50;;;;;24.65;45.00;99292.78;5052607;28;45429;-50
2022/08/01 06:33:58;;;;;;;;;16.25;14.50;;;;;24.68;45.54;99288.94;5043702;28;45563;-55
2022/08/01 06:36:25;;;;;;;;;11.50;10.75;;;;;24.70;45.20;99290.50;5051875;28;45529;-52
2022/08/01 06:38:50;;;;;;;;;14.50;12.75;;;;;24.72;45.05;99287.66;5045439;28;45754;-50
2022/08/01 06:41:16;;;;;;;;;11.00;11.00;;;;;24.74;44.93;99293.75;5051272;28;45361;-51
2022/08/01 06:43:41;;;;;;;;;15.25;13.00;;;;;24.79;44.80;99290.63;5044875;28;45568;-53
2022/08/01 06:46:07;;;;;;;;;12.75;11.25;;;;;24.82;44.78;99282.22;5052481;28;45468;-53
2022/08/01 06:48:32;;;;;;;;;11.50;11.50;;;;;24.84;45.17;99291.88;5050268;28;45441;-51
2022/08/01 06:51:13;;;;;;;;;11.00;11.00;;;;;24.85;44.52;99290.88;5051860;28;45452;-54
2022/08/01 06:53:38;;;;;;;;;11.25;11.25;;;;;24.88;45.06;99287.03;5047556;28;45527;-54
2022/08/01 06:56:05;;;;;;;;;11.25;11.25;;;;;24.90;44.42;99285.03;5051260;28;45441;-52
2022/08/01 06:58:30;;;;;;;;;12.00;12.00;;;;;24.92;44.54;99291.13;5050614;28;46325;-51
2022/08/01 07:00:56;;;;;;;;;12.75;12.00;;;;;24.96;44.55;99282.66;5047989;28;45369;-51
2022/08/01 07:03:21;;;;;;;;;13.75;11.00;;;;;25.00;44.53;99281.31;5051316;28;45915;-53
2022/08/01 07:05:47;;;;;;;;;13.75;11.75;;;;;25.06;44.63;99282.59;5044834;27;45468;-53
2022/08/01 07:08:12;;;;;;;;;13.00;13.00;;;;;25.10;44.34;99281.28;5051934;28;46043;-53
2022/08/01 07:10:37;;;;;;;;;13.00;11.75;;;;;25.12;44.43;99287.41;5054910;28;45416;-52
2022/08/01 07:13:03;;;;;;;;;12.00;12.00;;;;;25.17;44.24;99282.38;5054174;28;45555;-53
2022/08/01 07:15:28;;;;;;;;;12.25;11.75;;;;;25.22;44.21;99288.19;5048778;28;45256;-54
2022/08/01 07:17:53;;;;;;;;;13.25;12.25;;;;;25.24;43.98;99283.50;5053356;28;46295;-53
2022/08/01 07:20:19;;;;;;;;;12.75;12.25;;;;;25.26;44.08;99286.03;5053580;28;45364;-53
2022/08/01 07:22:45;;;;;;;;;12.00;11.00;;;;;25.28;43.94;99281.34;5051282;28;45496;-54
2022/08/01 07:25:10;;;;;;;;;13.75;12.25;;;;;25.34;43.83;99283.41;5048862;27;45542;-53
2022/08/01 07:27:36;;;;;;;;;13.50;12.50;;;;;25.38;43.61;99280.28;5052985;28;45731;-51
2022/08/01 07:30:03;;;;;;;;;12.00;11.00;;;;;25.43;43.81;99277.13;5049895;28;45381;-53
2022/08/01 07:32:29;;;;;;;;;13.75;11.75;;;;;25.49;43.24;99286.44;5052789;28;45632;-53
2022/08/01 07:34:54;;;;;;;;;11.00;11.00;;;;;25.52;43.28;99286.16;5050780;28;45607;-54
2022/08/01 07:37:20;;;;;;;;;12.50;12.50;;;;;25.54;42.85;99278.75;5049776;28;45345;-50
2022/08/01 07:39:45;;;;;;;;;13.00;13.00;;;;;25.58;42.56;99280.16;5046180;28;45414;-53
2022/08/01 07:42:11;;;;;;;;;11.75;11.50;;;;;25.62;42.71;99277.03;5050085;28;46022;-53
2022/08/01 07:44:36;;;;;;;;;11.75;11.00;;;;;25.66;42.99;99282.94;5048032;28;45480;-52
2022/08/01 07:47:02;;;;;;;;;13.50;12.00;;;;;25.70;42.57;99277.09;5048677;27;45416;-53
2022/08/01 07:49:27;;;;;;;;;15.00;13.25;;;;;25.75;42.51;99278.50;5048619;28;45505;-54
2022/08/01 07:51:54;;;;;;;;;11.75;10.00;;;;;25.77;42.40;99265.69;5053880;28;45449;-53
2022/08/01 07:54:19;;;;;;;;;12.75;11.75;;;;;25.85;42.18;99273.84;5048510;28;45457;-51
2022/08/01 07:56:45;;;;;;;;;13.00;13.00;;;;;25.90;41.97;99263.44;5051748;28;45490;-53
2022/08/01 07:59:10;;;;;;;;;11.75;11.50;;;;;25.96;41.43;99271.78;5048128;28;45622;-54
2022/08/01 08:01:36;;;;;;;;;14.00;14.00;;;;;25.99;41.40;99266.06;5053849;28;45402;-54
2022/08/01 08:04:02;;;;;;;;;11.25;10.25;;;;;26.01;40.97;99261.34;5048362;28;45532;-51
2022/08/01 08:06:27;;;;;;;;;15.00;13.00;;;;;26.03;41.10;99256.63;5046651;28;46062;-52
2022/08/01 08:08:53;;;;;;;;;16.75;13.75;;;;;26.07;41.02;99258.03;5048701;28;45377;-52
2022/08/01 08:11:19;;;;;;;;;13.00;13.00;;;;;26.13;41.18;99259.25;5055165;28;45424;-54
2022/08/01 08:13:44;;;;;;;;;12.50;12.50;;;;;26.18;40.61;99256.06;5046860;28;45406;-51
2022/08/01 08:16:10;;;;;;;;;16.00;15.50;;;;;26.23;40.83;99260.00;5054767;28;46367;-53
2022/08/01 08:18:35;;;;;;;;;12.00;12.00;;;;;26.29;40.49;99254.00;5050622;28;45470;-51
2022/08/01 08:21:01;;;;;;;;;14.25;11.75;;;;;26.33;40.33;99249.13;5052462;28;45453;-54
2022/08/01 08:26:11;;;;;;;;;11.75;11.75;;;;;26.44;40.13;99250.72;5051016;28;45513;-54
2022/08/01 08:28:36;;;;;;;;;20.25;15.50;;;;;26.50;40.21;99250.06;5048566;28;45459;-53
2022/08/01 08:31:01;;;;;;;;;11.50;11.50;;;;;26.54;40.08;99248.75;5050188;28;45538;-55
2022/08/01 08:33:27;;;;;;;;;12.50;11.50;;;;;26.58;39.78;99247.44;5047774;28;45476;-53
2022/08/01 08:35:54;;;;;;;;;10.25;10.25;;;;;26.60;39.81;99242.72;5045696;28;45456;-51
2022/08/01 08:38:19;;;;;;;;;12.00;12.00;;;;;26.62;39.63;99246.09;5051587;28;45574;-54
2022/08/01 08:40:45;;;;;;;;;12.00;12.00;;;;;26.68;39.78;99243.59;5052993;28;45451;-53
2022/08/01 08:43:10;;;;;;;;;12.25;12.25;;;;;26.74;39.76;99245.66;5048669;28;45578;-54
2022/08/01 08:45:37;;;;;;;;;12.50;10.25;;;;;26.81;39.68;99239.63;5046786;28;46502;-54
2022/08/01 08:48:05;;;;;;;;;14.50;14.50;;;;;26.86;39.60;99232.69;5048230;28;45400;-54
2022/08/01 08:50:31;;;;;;;;;13.00;11.75;;;;;26.94;39.39;99229.22;5040294;28;45389;-50
2022/08/01 08:53:01;;;;;;;;;12.00;12.00;;;;;26.99;39.92;99227.69;5050196;28;45489;-54
2022/08/01 08:55:27;;;;;;;;;12.50;12.50;;;;;27.06;39.61;99230.59;5053397;28;45814;-53
2022/08/01 08:57:54;;;;;;;;;13.75;12.75;;;;;27.14;39.45;99227.94;5049120;28;45527;-64
2022/08/01 09:00:19;;;;;;;;;13.50;13.50;;;;;27.22;39.23;99224.41;5052029;28;45603;-64
2022/08/01 09:02:46;;;;;;;;;15.50;14.00;;;;;27.32;39.26;99227.78;5050371;28;45477;-64
2022/08/01 09:05:12;;;;;;;;;13.00;13.00;;;;;27.37;39.19;99229.00;5051769;28;45403;-64
2022/08/01 09:07:39;;;;;;;;;12.75;12.75;;;;;27.42;39.12;99223.09;5050330;28;45490;-64
2022/08/01 09:10:05;;;;;;;;;14.00;14.00;;;;;27.45;38.86;99223.63;5044858;28;45451;-64
2022/08/01 09:12:31;;;;;;;;;14.00;13.00;;;;;27.46;38.83;99216.34;5050194;28;45473;-64
2022/08/01 09:14:57;;;;;;;;;11.75;11.75;;;;;27.50;38.35;99222.25;5031399;28;46836;-64
2022/08/01 09:17:23;;;;;;;;;13.50;12.50;;;;;27.52;38.82;99218.38;5046266;28;45448;-64
2022/08/01 09:19:51;;;;;;;;;12.00;11.25;;;;;27.56;38.77;99218.88;5053262;28;45420;-64
2022/08/01 09:22:20;;;;;;;;;13.00;13.00;;;;;27.60;38.28;99220.28;5052120;28;45419;-64
2022/08/01 09:25:09;;;;;;;;;11.25;11.25;;;;;27.64;38.42;99217.09;5047977;28;47008;-64
2022/08/01 09:27:37;;;;;;;;;10.75;10.75;;;;;27.68;38.15;99225.69;5037475;28;45516;-64
2022/08/01 09:30:10;;;;;;;;;11.25;11.00;;;;;27.72;37.57;99218.94;5050146;28;45478;-64
2022/08/01 09:32:35;;;;;;;;;11.25;11.25;;;;;27.77;38.06;99219.28;5050377;28;45562;-64
2022/08/01 09:35:36;;;;;;;;;10.75;10.75;;;;;27.87;37.69;99213.69;5048550;28;45524;-64
2022/08/01 09:38:22;;;;;;;;;10.00;10.00;;;;;27.98;37.53;99214.22;5048283;28;45414;-64
2022/08/01 09:40:57;;;;;;;;;12.75;12.75;;;;;28.05;37.68;99209.78;5050601;28;45513;-64
2022/08/01 09:43:25;;;;;;;;;11.75;11.75;;;;;28.11;36.95;99206.41;5049079;28;45574;-65
2022/08/01 09:45:51;;;;;;;;;10.75;10.00;;;;;28.18;36.88;99201.13;5047143;28;46557;-64
2022/08/01 09:48:18;;;;;;;;;11.75;11.75;;;;;28.28;36.68;99196.41;5048376;28;45497;-64
2022/08/01 09:50:46;;;;;;;;;11.50;10.75;;;;;28.37;36.77;99198.06;5045290;28;45428;-64
2022/08/01 09:53:12;;;;;;;;;11.50;10.50;;;;;28.45;36.47;99195.38;5048035;28;45553;-64
2022/08/01 09:55:38;;;;;;;;;11.00;10.00;;;;;28.55;36.96;99189.72;5052599;28;46285;-65
2022/08/01 09:58:05;;;;;;;;;9.75;9.75;;;;;28.66;36.23;99188.50;5048139;28;45495;-64
2022/08/01 10:00:34;;;;;;;;;11.00;10.25;;;;;28.74;35.60;99181.19;5051940;28;45468;-64
2022/08/01 10:03:19;;;;;;;;;9.50;9.50;;;;;28.82;36.16;99174.91;5048063;28;45144;-65
2022/08/01 10:05:44;;;;;;;;;9.00;9.00;;;;;28.90;35.95;99174.88;5048784;28;46541;-62
2022/08/01 10:08:12;;;;;;;;;9.50;9.50;;;;;29.01;36.23;99169.03;5043863;28;45429;-62
2022/08/01 10:10:38;;;;;;;;;10.00;10.00;;;;;29.12;36.24;99160.50;5045439;28;45479;-62
2022/08/01 10:13:04;;;;;;;;;10.75;10.50;;;;;29.24;35.93;99171.78;5049746;28;45551;-62
2022/08/01 10:15:31;;;;;;;;;8.00;8.00;;;;;29.34;34.95;99160.69;5051597;28;46440;-62
2022/08/01 10:18:00;;;;;;;;;10.00;10.00;;;;;29.40;35.46;99165.44;5048632;28;45480;-62
2022/08/01 10:20:28;;;;;;;;;8.00;8.00;;;;;29.45;35.00;99160.31;5050104;28;45464;-62
2022/08/01 10:22:54;;;;;;;;;11.25;11.00;;;;;29.48;34.73;99152.66;5048881;28;45364;-62
2022/08/01 10:25:21;;;;;;;;;9.00;9.00;;;;;29.54;35.12;99156.50;5048139;28;46430;-62
2022/08/01 10:27:49;;;;;;;;;7.75;7.50;;;;;29.59;34.76;99148.66;5051012;28;45520;-62
2022/08/01 10:30:15;;;;;;;;;7.00;7.00;;;;;29.65;34.90;99147.94;5055458;28;45305;-62
2022/08/01 10:32:42;;;;;;;;;9.00;8.25;;;;;29.73;35.15;99139.69;5054226;28;45326;-63
2022/08/01 10:35:08;;;;;;;;;7.50;7.50;;;;;29.79;34.62;99138.97;5052963;28;45487;-62
2022/08/01 10:37:35;;;;;;;;;9.00;9.00;;;;;29.88;34.83;99130.72;5054627;28;45404;-62
2022/08/01 10:40:01;;;;;;;;;9.75;9.75;;;;;29.94;34.09;99130.00;5050363;28;45472;-62
2022/08/01 10:42:27;;;;;;;;;7.00;7.00;;;;;30.02;33.93;99124.50;5055567;28;45259;-62
2022/08/01 10:44:54;;;;;;;;;8.00;6.50;;;;;30.09;34.52;99114.59;5048904;28;47473;-62
2022/08/01 10:47:46;;;;;;;;;6.75;6.75;;;;;30.17;34.34;99114.47;5052417;28;45440;-62
2022/08/01 10:50:34;;;;;;;;;9.25;8.00;;;;;30.23;33.68;99107.44;5053915;28;45620;-62
2022/08/01 10:53:14;;;;;;;;;8.25;7.50;;;;;30.30;33.36;99114.69;5030030;28;45386;-62
2022/08/01 10:56:00;;;;;;;;;8.00;6.50;;;;;30.37;33.39;99098.44;5048631;28;45470;-62
2022/08/01 10:58:38;;;;;;;;;8.00;8.00;;;;;30.42;33.00;99096.84;5050475;28;45435;-63
2022/08/01 11:01:20;;;;;;;;;10.50;9.25;;;;;30.52;32.54;99099.28;5055904;28;45428;-62
2022/08/01 11:03:56;;;;;;;;;6.00;6.00;;;;;30.60;32.99;99092.94;5048113;28;45526;-62
2022/08/01 11:06:25;;;;;;;;;6.25;6.00;;;;;30.69;32.77;99097.22;5054822;28;45676;-62
2022/08/01 11:08:53;;;;;;;;;6.80;6.80;;;;;30.78;33.03;99098.81;5045711;28;45431;-62
2022/08/01 11:11:19;;;;;;;;;6.25;5.50;;;;;30.85;31.54;99092.38;5054679;28;45436;-62
2022/08/01 11:14:33;;;;;;;;;9.25;8.25;;;;;30.93;32.05;99086.00;5053644;28;45595;-62
2022/08/01 11:16:52;;;;;;;;;7.25;7.00;;;;;31.01;31.53;99091.31;5050248;28;46159;-62
2022/08/01 11:19:17;;;;;;;;;5.75;5.75;;;;;31.06;30.97;99088.00;5050901;28;45528;-62
2022/08/01 11:21:51;;;;;;;;;6.00;5.25;;;;;31.09;30.58;99090.34;5055889;27;46016;-62
2022/08/01 11:24:46;;;;;;;;;9.50;8.00;;;;;31.11;31.58;99075.53;5047942;28;45424;-63
2022/08/01 11:27:27;;;;;;;;;6.50;6.00;;;;;31.19;31.42;99077.28;5054464;28;47425;-62
2022/08/01 11:30:08;;;;;;;;;6.00;6.00;;;;;31.26;30.70;99080.94;5049041;28;45404;-62
2022/08/01 11:32:34;;;;;;;;;6.25;5.75;;;;;31.29;30.63;99076.97;5054133;28;45493;-61
2022/08/01 11:34:59;;;;;;;;;6.50;6.25;;;;;31.32;30.60;99061.09;5049720;28;45674;-62
2022/08/01 11:37:26;;;;;;;;;5.25;5.25;;;;;31.38;30.50;99046.66;5052611;28;46391;-62